ADDS - METARS form results

Aviation Digital Data Service (ADDS)

Output produced by METARs form (1049 UTC 26 October 2020)
found at http://aviationweather.gov/metar/data/
 
METAR text: KVYS 261035Z AUTO 35011KT 7SM OVC009 01/00 A3024 RMK AO2 T00120002
Conditions at: KVYS (PERU , IL, US) observed 1035 UTC 26 October 2020
Temperature: 1.2°C (34°F)
Dewpoint: 0.2°C (32°F) [RH = 93%]
Pressure (altimeter): 30.24 inches Hg (1024.1 mb)
Winds: from the N (350 degrees) at 13 MPH (11 knots; 5.7 m/s)
Visibility: 7 miles (11 km)
Ceiling: 900 feet AGL
Clouds: overcast cloud deck at 900 feet AGL
Weather: automated observation with no human augmentation;
there may or may not be significant weather present at this time

METAR text: KVYS 261015Z AUTO 34010KT 7SM -DZ OVC007 01/01 A3024 RMK AO2 T00120005
Conditions at: KVYS (PERU , IL, US) observed 1015 UTC 26 October 2020
Temperature: 1.2°C (34°F)
Dewpoint: 0.5°C (33°F) [RH = 95%]
Pressure (altimeter): 30.24 inches Hg (1024.1 mb)
Winds: from the NNW (340 degrees) at 12 MPH (10 knots; 5.1 m/s)
Visibility: 7 miles (11 km)
Ceiling: 700 feet AGL
Clouds: overcast cloud deck at 700 feet AGL
Weather: -DZ  (light drizzle)

METAR text: KVYS 260955Z AUTO 35008KT 7SM -DZ OVC007 01/00 A3021 RMK AO2 T00100003
Conditions at: KVYS (PERU , IL, US) observed 0955 UTC 26 October 2020
Temperature: 1.0°C (34°F)
Dewpoint: 0.3°C (33°F) [RH = 95%]
Pressure (altimeter): 30.21 inches Hg (1023.1 mb)
Winds: from the N (350 degrees) at 9 MPH (8 knots; 4.1 m/s)
Visibility: 7 miles (11 km)
Ceiling: 700 feet AGL
Clouds: overcast cloud deck at 700 feet AGL
Weather: -DZ  (light drizzle)